createdAt,value
2023-04-29T00:02:16.728Z,93961.16
2023-04-29T00:04:43.529Z,93954.53
2023-04-29T00:07:10.070Z,93956.22
2023-04-29T00:09:37.629Z,93953.78
2023-04-29T00:12:04.135Z,93957.91
2023-04-29T00:14:30.592Z,93949.78
2023-04-29T00:16:57.236Z,93945.34
2023-04-29T00:19:23.814Z,93939.03
2023-04-29T00:21:50.243Z,93943.19
2023-04-29T00:24:16.685Z,93939.63
2023-04-29T00:26:43.072Z,93948.09
2023-04-29T00:29:09.551Z,93947.94
2023-04-29T00:31:37.451Z,93946.72
2023-04-29T00:34:04.049Z,93943.16
2023-04-29T00:36:31.870Z,93946.09
2023-04-29T00:38:59.493Z,93947.47
2023-04-29T00:41:26.199Z,93936.69
2023-04-29T00:43:53.071Z,93944.22
2023-04-29T00:46:19.869Z,93948.84
2023-04-29T00:48:46.420Z,93947.75
2023-04-29T00:51:13.648Z,93951.91
2023-04-29T00:53:40.877Z,93948.69
2023-04-29T00:56:08.668Z,93948.38
2023-04-29T00:58:36.284Z,93948.38
2023-04-29T01:01:03.854Z,93947.16
2023-04-29T01:03:31.669Z,93947.47
2023-04-29T01:06:09.241Z,93953.59
2023-04-29T01:08:51.186Z,93956.53
2023-04-29T01:11:23.778Z,93956.81
2023-04-29T01:13:54.412Z,93957.91
2023-04-29T01:16:42.833Z,93963.41
2023-04-29T01:19:55.126Z,93959.88
2023-04-29T01:22:22.435Z,93966.78
2023-04-29T01:24:49.703Z,93966.59
2023-04-29T01:27:31.809Z,93964.47
2023-04-29T01:30:34.862Z,93965.25
2023-04-29T01:33:17.101Z,93963.25
2023-04-29T01:35:52.821Z,93964.16
2023-04-29T01:38:38.305Z,93962.31
2023-04-29T01:41:14.381Z,93969.56
2023-04-29T01:43:43.037Z,93964.34
2023-04-29T01:46:19.574Z,93966.50
2023-04-29T01:48:46.566Z,93956.78
2023-04-29T01:51:13.785Z,93956.03
2023-04-29T01:53:41.071Z,93960.50
2023-04-29T01:56:08.260Z,93950.81
2023-04-29T01:58:44.743Z,93953.72
2023-04-29T02:01:20.093Z,93955.88
2023-04-29T02:03:46.964Z,93952.03
2023-04-29T02:06:15.397Z,93957.84
2023-04-29T02:08:42.550Z,93959.69
2023-04-29T02:11:08.982Z,93957.84
2023-04-29T02:13:39.732Z,93957.25
2023-04-29T02:16:10.918Z,93952.81
2023-04-29T02:18:41.155Z,93954.63
2023-04-29T02:21:07.864Z,93947.41
2023-04-29T02:23:35.761Z,93962.31
2023-04-29T02:26:03.908Z,93958.91
2023-04-29T02:28:30.351Z,93946.63
2023-04-29T02:30:57.769Z,93954.19
2023-04-29T02:33:24.480Z,93956.78
2023-04-29T02:35:50.904Z,93962.75
2023-04-29T02:38:17.400Z,93959.09
2023-04-29T02:40:45.458Z,93954.63
2023-04-29T02:43:12.859Z,93949.72
2023-04-29T02:45:39.876Z,93949.56
2023-04-29T02:48:07.588Z,93956.78
2023-04-29T02:50:34.317Z,93965.38
2023-04-29T02:53:01.175Z,93959.09
2023-04-29T02:55:27.740Z,93968.63
2023-04-29T02:57:58.766Z,93950.81
2023-04-29T03:00:25.434Z,93960.81
2023-04-29T03:02:52.038Z,93956.34
2023-04-29T03:05:19.149Z,93960.81
2023-04-29T03:07:45.720Z,93957.41
2023-04-29T03:10:12.456Z,93964.19
2023-04-29T03:12:39.520Z,93963.72
2023-04-29T03:15:07.663Z,93959.56
2023-04-29T03:17:34.855Z,93955.13
2023-04-29T03:20:01.660Z,93955.44
2023-04-29T03:22:28.524Z,93953.13
2023-04-29T03:24:55.066Z,93950.81
2023-04-29T03:27:22.197Z,93947.72
2023-04-29T03:29:49.384Z,93946.81
2023-04-29T03:32:15.945Z,93941.13
2023-04-29T03:34:43.699Z,93950.34
2023-04-29T03:37:36.258Z,93941.38
2023-04-29T03:40:19.880Z,93942.75
2023-04-29T03:42:47.187Z,93944.47
2023-04-29T03:45:14.432Z,93942.72
2023-04-29T03:47:41.478Z,93942.88
2023-04-29T03:50:08.548Z,93948.41
2023-04-29T03:52:38.019Z,93939.16
2023-04-29T03:55:10.430Z,93938.56
2023-04-29T03:57:37.046Z,93938.13
2023-04-29T04:00:05.118Z,93939.94
2023-04-29T04:02:40.160Z,93940.72
2023-04-29T04:05:08.758Z,93939.16
2023-04-29T04:07:35.553Z,93942.06
2023-04-29T04:10:20.506Z,93932.25
2023-04-29T04:12:50.165Z,93945.59
2023-04-29T04:15:17.069Z,93944.81
2023-04-29T04:17:43.664Z,93935.47
2023-04-29T04:20:10.704Z,93942.06
2023-04-29T04:22:38.035Z,93948.13
2023-04-29T04:25:14.632Z,93949.97
2023-04-29T04:27:41.160Z,93949.22
2023-04-29T04:30:12.448Z,93953.66
2023-04-29T04:32:40.626Z,93959.34
2023-04-29T04:35:08.320Z,93960.56
2023-04-29T04:37:34.854Z,93963.19
2023-04-29T04:40:02.114Z,93965.78
2023-04-29T04:42:30.152Z,93965.53
2023-04-29T04:44:58.172Z,93967.81
2023-04-29T04:47:33.803Z,93975.06
2023-04-29T04:50:05.343Z,93978.91
2023-04-29T04:52:31.810Z,93978.59
2023-04-29T04:55:18.588Z,93986.91
2023-04-29T04:57:49.472Z,93984.75
2023-04-29T05:00:17.436Z,93989.38
2023-04-29T05:02:44.294Z,93995.69
2023-04-29T05:05:10.896Z,93991.13
2023-04-29T05:07:40.777Z,93998.53
2023-04-29T05:10:08.858Z,93991.63
2023-04-29T05:12:42.518Z,93999.03
2023-04-29T05:15:09.273Z,93994.44
2023-04-29T05:17:36.462Z,94004.00
2023-04-29T05:20:03.597Z,94018.13
2023-04-29T05:22:32.279Z,94012.16
2023-04-29T05:25:03.139Z,94015.13
2023-04-29T05:27:31.216Z,94014.81
2023-04-29T05:29:57.861Z,94008.53
2023-04-29T05:32:24.546Z,94014.38
2023-04-29T05:34:51.473Z,94019.91
2023-04-29T05:37:17.953Z,94019.75
2023-04-29T05:40:00.242Z,94017.31
2023-04-29T05:42:27.215Z,94020.09
2023-04-29T05:44:53.811Z,94031.47
2023-04-29T05:47:20.320Z,94031.34
2023-04-29T05:49:47.015Z,94033.50
2023-04-29T05:52:13.834Z,94033.50
2023-04-29T05:54:45.035Z,94045.97
2023-04-29T05:57:12.083Z,94048.91
2023-04-29T05:59:40.612Z,94056.75
2023-04-29T06:02:07.086Z,94053.94
2023-04-29T06:04:35.214Z,94067.59
2023-04-29T06:07:26.825Z,94064.06
2023-04-29T06:10:13.587Z,94064.66
2023-04-29T06:12:42.726Z,94066.03
2023-04-29T06:15:09.591Z,94074.22
2023-04-29T06:17:36.101Z,94069.59
2023-04-29T06:20:02.563Z,94081.59
2023-04-29T06:22:29.341Z,94078.50
2023-04-29T06:24:58.718Z,94081.88
2023-04-29T06:27:41.522Z,94086.50
2023-04-29T06:30:08.528Z,94092.97
2023-04-29T06:32:35.375Z,94100.50
2023-04-29T06:35:01.953Z,94102.34
2023-04-29T06:37:57.620Z,94100.81
2023-04-29T06:40:36.259Z,94103.91
2023-04-29T06:43:12.769Z,94099.03
2023-04-29T06:45:57.851Z,94099.63
2023-04-29T06:48:33.980Z,94102.38
2023-04-29T06:51:00.470Z,94110.38
2023-04-29T06:53:27.264Z,94114.03
2023-04-29T06:55:53.789Z,94114.03
2023-04-29T06:58:20.456Z,94098.78
2023-04-29T07:00:49.827Z,94103.59
2023-04-29T07:05:50.383Z,94113.63
2023-04-29T07:08:16.889Z,94112.28
2023-04-29T07:10:43.329Z,94115.50
2023-04-29T07:13:09.781Z,94106.59
2023-04-29T07:15:36.966Z,94111.34
2023-04-29T07:18:05.305Z,94118.59
2023-04-29T07:20:32.218Z,94116.59
2023-04-29T07:22:59.249Z,94128.59
2023-04-29T07:25:27.880Z,94132.44
2023-04-29T07:27:56.524Z,94124.75
2023-04-29T07:30:25.103Z,94130.44
2023-04-29T07:32:51.799Z,94138.31
2023-04-29T07:35:18.811Z,94135.06
2023-04-29T07:37:45.879Z,94143.09
2023-04-29T07:40:12.551Z,94149.38
2023-04-29T07:42:39.152Z,94150.00
2023-04-29T07:45:07.850Z,94143.84
2023-04-29T07:47:34.422Z,94144.47
2023-04-29T07:50:01.025Z,94150.59
2023-04-29T07:52:27.478Z,94142.59
2023-04-29T07:54:56.181Z,94139.06
2023-04-29T07:57:22.977Z,94144.94
2023-04-29T07:59:55.579Z,94153.22
2023-04-29T08:02:22.142Z,94155.56
2023-04-29T08:04:51.424Z,94152.63
2023-04-29T08:07:18.377Z,94152.47
2023-04-29T08:09:45.089Z,94162.03
2023-04-29T08:12:11.528Z,94156.63
2023-04-29T08:14:40.301Z,94159.06
2023-04-29T08:17:07.410Z,94154.13
2023-04-29T08:19:33.975Z,94153.19
2023-04-29T08:22:01.142Z,94157.78
2023-04-29T08:24:29.053Z,94169.50
2023-04-29T08:26:55.568Z,94170.06
2023-04-29T08:29:21.992Z,94160.47
2023-04-29T08:31:48.541Z,94168.66
2023-04-29T08:34:15.038Z,94169.63
2023-04-29T08:36:41.498Z,94166.09
2023-04-29T08:39:08.842Z,94170.72
2023-04-29T08:41:36.959Z,94173.22
2023-04-29T08:44:03.400Z,94173.69
2023-04-29T08:46:30.919Z,94165.03
2023-04-29T08:48:57.790Z,94168.91
2023-04-29T08:51:24.526Z,94173.97
2023-04-29T08:53:51.125Z,94177.09
2023-04-29T08:56:20.461Z,94178.91
2023-04-29T08:58:51.877Z,94185.53
2023-04-29T09:01:18.860Z,94159.00
2023-04-29T09:03:56.124Z,94182.75
2023-04-29T09:06:22.761Z,94173.34
2023-04-29T09:08:49.420Z,94172.00
2023-04-29T09:11:16.632Z,94179.22
2023-04-29T09:13:43.077Z,94189.22
2023-04-29T09:16:13.326Z,94190.13
2023-04-29T09:18:50.886Z,94188.44
2023-04-29T09:21:25.370Z,94186.41
2023-04-29T09:23:54.412Z,94193.63
2023-04-29T09:26:21.138Z,94192.50
2023-04-29T09:28:49.719Z,94201.88
2023-04-29T09:31:27.706Z,94197.09
2023-04-29T09:33:56.295Z,94203.59
2023-04-29T09:36:45.490Z,94195.78
2023-04-29T09:39:17.328Z,94205.94
2023-04-29T09:41:43.734Z,94194.84
2023-04-29T09:44:10.845Z,94193.94
2023-04-29T09:46:38.351Z,94199.34
2023-04-29T09:49:22.504Z,94195.13
2023-04-29T09:51:56.791Z,94195.66
2023-04-29T09:54:25.336Z,94196.69
2023-04-29T09:56:53.267Z,94190.34
2023-04-29T09:59:20.096Z,94188.88
2023-04-29T10:01:51.349Z,94195.91
2023-04-29T10:04:19.875Z,94194.13
2023-04-29T10:06:49.234Z,94200.41
2023-04-29T10:09:17.006Z,94202.31
2023-04-29T10:11:48.853Z,94194.00
2023-04-29T10:14:17.916Z,94201.34
2023-04-29T10:17:03.629Z,94205.66
2023-04-29T10:19:47.453Z,94199.88
2023-04-29T10:22:26.886Z,94202.06
2023-04-29T10:24:55.227Z,94205.47
2023-04-29T10:27:24.848Z,94198.22
2023-04-29T10:29:54.923Z,94197.81
2023-04-29T10:32:21.948Z,94201.59
2023-04-29T10:34:49.502Z,94204.50
2023-04-29T10:37:16.998Z,94191.69
2023-04-29T10:40:12.276Z,94191.50
2023-04-29T10:42:41.758Z,94185.84
2023-04-29T10:45:29.904Z,94190.66
2023-04-29T10:48:06.162Z,94191.22
2023-04-29T10:50:34.130Z,94190.41
2023-04-29T10:53:05.061Z,94187.53
2023-04-29T10:55:35.788Z,94184.81
2023-04-29T10:58:04.023Z,94178.78
2023-04-29T11:00:32.646Z,94169.59
2023-04-29T11:03:05.586Z,94180.03
2023-04-29T11:05:34.843Z,94180.59
2023-04-29T11:08:16.441Z,94178.06
2023-04-29T11:10:43.759Z,94167.09
2023-04-29T11:13:27.455Z,94182.88
2023-04-29T11:16:04.054Z,94181.53
2023-04-29T11:18:30.815Z,94174.56
2023-04-29T11:21:06.429Z,94184.25
2023-04-29T11:23:45.040Z,94177.91
2023-04-29T11:26:11.607Z,94180.13
2023-04-29T11:28:41.828Z,94190.91
2023-04-29T11:31:08.807Z,94179.34
2023-04-29T11:33:35.696Z,94188.34
2023-04-29T11:36:03.504Z,94187.88
2023-04-29T11:38:30.951Z,94196.03
2023-04-29T11:40:59.579Z,94193.06
2023-04-29T11:43:26.325Z,94186.47
2023-04-29T11:45:53.612Z,94191.22
2023-04-29T11:48:26.999Z,94182.47
2023-04-29T11:50:56.909Z,94188.94
2023-04-29T11:53:25.458Z,94189.94
2023-04-29T11:55:55.913Z,94193.03
2023-04-29T11:58:23.375Z,94185.25
2023-04-29T12:00:50.518Z,94193.84
2023-04-29T12:03:19.115Z,94191.94
2023-04-29T12:05:56.256Z,94184.88
2023-04-29T12:08:24.194Z,94184.81
2023-04-29T12:10:51.280Z,94186.53
2023-04-29T12:13:18.923Z,94184.63
2023-04-29T12:15:48.759Z,94191.50
2023-04-29T12:18:16.896Z,94193.44
2023-04-29T12:20:43.550Z,94189.47
2023-04-29T12:23:14.387Z,94198.34
2023-04-29T12:25:41.365Z,94191.09
2023-04-29T12:28:14.359Z,94198.31
2023-04-29T12:30:41.174Z,94199.84
2023-04-29T12:33:10.667Z,94199.00
2023-04-29T12:35:37.574Z,94197.25
2023-04-29T12:38:04.155Z,94187.59
2023-04-29T12:40:32.474Z,94194.94
2023-04-29T12:43:07.138Z,94193.41
2023-04-29T12:45:34.713Z,94190.44
2023-04-29T12:48:02.214Z,94195.06
2023-04-29T12:50:36.070Z,94198.00
2023-04-29T12:53:04.833Z,94200.50
2023-04-29T12:55:35.945Z,94200.69
2023-04-29T12:58:03.547Z,94200.59
2023-04-29T13:00:30.181Z,94202.00
2023-04-29T13:02:56.773Z,94197.88
2023-04-29T13:05:23.742Z,94195.50
2023-04-29T13:07:50.408Z,94200.09
2023-04-29T13:10:17.456Z,94194.59
2023-04-29T13:12:43.871Z,94199.91
2023-04-29T13:15:11.327Z,94197.50
2023-04-29T13:17:37.864Z,94194.53
2023-04-29T13:20:05.607Z,94199.97
2023-04-29T13:22:32.769Z,94204.91
2023-04-29T13:24:59.463Z,94197.66
2023-04-29T13:27:25.935Z,94193.94
2023-04-29T13:29:52.507Z,94197.53
2023-04-29T13:32:21.505Z,94197.88
2023-04-29T13:34:48.081Z,94198.47
2023-04-29T13:37:14.547Z,94201.75
2023-04-29T13:39:44.363Z,94204.59
2023-04-29T13:42:15.269Z,94199.88
2023-04-29T13:44:52.547Z,94202.94
2023-04-29T13:47:26.312Z,94192.97
2023-04-29T13:53:10.747Z,94196.72
2023-04-29T14:00:31.649Z,94208.09
2023-04-29T14:05:30.681Z,94205.03
2023-04-29T14:07:57.309Z,94210.84
2023-04-29T14:10:23.765Z,94208.19
2023-04-29T14:12:50.301Z,94211.59
2023-04-29T14:15:16.745Z,94204.50
2023-04-29T14:17:43.368Z,94213.81
2023-04-29T14:20:10.128Z,94216.66
2023-04-29T14:22:36.594Z,94221.03
2023-04-29T14:25:03.359Z,94220.16
2023-04-29T14:27:29.874Z,94219.72
2023-04-29T14:29:56.292Z,94222.53
2023-04-29T14:32:22.743Z,94219.56
2023-04-29T14:34:49.198Z,94224.91
2023-04-29T14:37:15.623Z,94225.47
2023-04-29T14:39:42.019Z,94227.28
2023-04-29T14:42:08.390Z,94242.78
2023-04-29T14:44:34.801Z,94240.38
2023-04-29T14:47:01.269Z,94242.78
2023-04-29T14:49:30.287Z,94240.59
2023-04-29T14:51:57.881Z,94233.69
2023-04-29T14:54:24.680Z,94234.34
2023-04-29T14:56:51.090Z,94240.25
2023-04-29T14:59:17.690Z,94236.06
2023-04-29T15:01:44.224Z,94242.44
2023-04-29T15:04:12.691Z,94243.72
2023-04-29T15:06:40.435Z,94238.66
2023-04-29T15:09:07.916Z,94239.59
2023-04-29T15:11:34.383Z,94246.91
2023-04-29T15:14:00.902Z,94242.81
2023-04-29T15:16:28.633Z,94238.25
2023-04-29T15:18:55.246Z,94248.19
2023-04-29T15:21:22.120Z,94247.31
2023-04-29T15:23:48.621Z,94252.28
2023-04-29T15:26:15.115Z,94261.13
2023-04-29T15:28:43.189Z,94263.94
2023-04-29T15:31:09.899Z,94259.50
2023-04-29T15:33:36.580Z,94254.75
2023-04-29T15:36:03.253Z,94263.38
2023-04-29T15:38:30.056Z,94264.28
2023-04-29T15:41:00.897Z,94267.06
2023-04-29T15:43:28.053Z,94263.66
2023-04-29T15:45:54.552Z,94264.75
2023-04-29T15:48:21.210Z,94273.84
2023-04-29T15:50:48.069Z,94265.38
2023-04-29T15:53:14.466Z,94271.72
2023-04-29T15:55:41.141Z,94270.81
2023-04-29T15:58:07.632Z,94276.53
2023-04-29T16:00:34.089Z,94288.13
2023-04-29T16:03:00.767Z,94286.78
2023-04-29T16:05:27.292Z,94286.19
2023-04-29T16:07:53.686Z,94286.66
2023-04-29T16:10:20.093Z,94288.06
2023-04-29T16:12:46.605Z,94280.38
2023-04-29T16:15:13.049Z,94289.94
2023-04-29T16:17:39.571Z,94295.50
2023-04-29T16:20:06.737Z,94293.78
2023-04-29T16:22:33.165Z,94292.53
2023-04-29T16:25:01.036Z,94301.81
2023-04-29T16:27:29.853Z,94300.91
2023-04-29T16:29:56.746Z,94303.53
2023-04-29T16:32:23.559Z,94313.00
2023-04-29T16:34:50.048Z,94311.91
2023-04-29T16:37:16.549Z,94301.91
2023-04-29T16:39:43.867Z,94310.56
2023-04-29T16:42:10.732Z,94313.50
2023-04-29T16:44:37.148Z,94318.25
2023-04-29T16:47:03.962Z,94324.22
2023-04-29T16:49:31.299Z,94319.75
2023-04-29T16:51:57.917Z,94321.31
2023-04-29T16:54:25.258Z,94327.31
2023-04-29T16:56:51.759Z,94337.19
2023-04-29T16:59:18.252Z,94334.25
2023-04-29T17:01:45.152Z,94334.84
2023-04-29T17:04:11.823Z,94332.56
2023-04-29T17:06:40.558Z,94333.00
2023-04-29T17:09:07.467Z,94331.44
2023-04-29T17:11:33.895Z,94347.78
2023-04-29T17:14:00.352Z,94350.81
2023-04-29T17:16:27.286Z,94343.59
2023-04-29T17:18:54.321Z,94347.13
2023-04-29T17:21:24.626Z,94345.88
2023-04-29T17:23:53.061Z,94347.56
2023-04-29T17:26:20.361Z,94362.16
2023-04-29T17:28:46.787Z,94363.38
2023-04-29T17:31:15.043Z,94356.72
2023-04-29T17:33:50.269Z,94354.25
2023-04-29T17:36:17.319Z,94363.59
2023-04-29T17:38:43.742Z,94357.25
2023-04-29T17:41:10.257Z,94360.75
2023-04-29T17:43:36.678Z,94360.91
2023-04-29T17:46:03.649Z,94362.59
2023-04-29T17:48:32.112Z,94363.78
2023-04-29T17:50:58.684Z,94365.75
2023-04-29T17:53:25.308Z,94368.50
2023-04-29T17:55:51.692Z,94368.09
2023-04-29T17:58:18.562Z,94371.03
2023-04-29T18:00:45.873Z,94373.13
2023-04-29T18:03:12.492Z,94373.75
2023-04-29T18:05:39.028Z,94376.47
2023-04-29T18:08:05.572Z,94375.22
2023-04-29T18:10:32.122Z,94374.94
2023-04-29T18:12:58.583Z,94382.19
2023-04-29T18:15:25.000Z,94379.09
2023-04-29T18:17:51.476Z,94380.16
2023-04-29T18:20:17.987Z,94378.63
2023-04-29T18:22:44.457Z,94378.75
2023-04-29T18:25:11.201Z,94387.75
2023-04-29T18:27:37.786Z,94382.53
2023-04-29T18:30:04.679Z,94384.09
2023-04-29T18:32:31.111Z,94384.88
2023-04-29T18:34:59.525Z,94387.16
2023-04-29T18:37:26.093Z,94383.00
2023-04-29T18:39:52.783Z,94387.94
2023-04-29T18:42:19.522Z,94390.25
2023-04-29T18:44:48.164Z,94392.13
2023-04-29T18:47:15.052Z,94393.94
2023-04-29T18:49:41.487Z,94393.94
2023-04-29T18:52:08.570Z,94399.47
2023-04-29T18:54:35.139Z,94398.81
2023-04-29T18:57:02.744Z,94396.31
2023-04-29T18:59:29.652Z,94401.97
2023-04-29T19:01:56.235Z,94405.91
2023-04-29T19:04:22.838Z,94409.28
2023-04-29T19:06:49.304Z,94417.44
2023-04-29T19:09:15.975Z,94413.84
2023-04-29T19:11:42.458Z,94416.19
2023-04-29T19:14:08.923Z,94425.28
2023-04-29T19:16:37.298Z,94428.66
2023-04-29T19:19:04.185Z,94429.91
2023-04-29T19:21:32.805Z,94416.00
2023-04-29T19:23:59.800Z,94423.25
2023-04-29T19:26:26.218Z,94420.75
2023-04-29T19:28:52.664Z,94425.19
2023-04-29T19:31:19.191Z,94431.38
2023-04-29T19:33:46.048Z,94432.72
2023-04-29T19:36:14.204Z,94442.44
2023-04-29T19:38:40.838Z,94440.09
2023-04-29T19:41:07.308Z,94443.75
2023-04-29T19:43:33.732Z,94442.81
2023-04-29T19:46:00.262Z,94439.16
2023-04-29T19:48:26.674Z,94438.84
2023-04-29T19:50:53.167Z,94443.00
2023-04-29T19:53:19.920Z,94437.22
2023-04-29T19:55:46.558Z,94448.41
2023-04-29T19:58:13.015Z,94443.75
2023-04-29T20:00:39.743Z,94442.50
2023-04-29T20:03:06.295Z,94440.31
2023-04-29T20:05:32.782Z,94439.84
2023-04-29T20:07:59.300Z,94439.84
2023-04-29T20:10:28.101Z,94437.22
2023-04-29T20:12:56.207Z,94443.03
2023-04-29T20:15:22.683Z,94436.84
2023-04-29T20:17:49.986Z,94444.41
2023-04-29T20:20:16.677Z,94444.66
2023-04-29T20:22:43.367Z,94436.16
2023-04-29T20:25:09.862Z,94441.97
2023-04-29T20:27:36.327Z,94439.94
2023-04-29T20:30:03.335Z,94445.47
2023-04-29T20:32:30.715Z,94450.22
2023-04-29T20:34:57.309Z,94450.78
2023-04-29T20:37:23.743Z,94450.59
2023-04-29T20:39:50.500Z,94450.38
2023-04-29T20:42:17.037Z,94458.91
2023-04-29T20:44:43.597Z,94461.81
2023-04-29T20:47:10.380Z,94471.28
2023-04-29T20:49:37.077Z,94463.53
2023-04-29T20:52:06.243Z,94466.25
2023-04-29T20:54:33.342Z,94439.94
2023-04-29T20:56:59.906Z,94463.31
2023-04-29T20:59:26.327Z,94460.25
2023-04-29T21:01:52.793Z,94472.81
2023-04-29T21:04:21.003Z,94472.31
2023-04-29T21:06:47.454Z,94473.38
2023-04-29T21:09:13.935Z,94473.16
2023-04-29T21:11:40.386Z,94469.78
2023-04-29T21:14:06.820Z,94480.75
2023-04-29T21:16:33.307Z,94482.88
2023-04-29T21:18:59.730Z,94479.50
2023-04-29T21:21:26.141Z,94483.19
2023-04-29T21:23:52.809Z,94476.41
2023-04-29T21:26:19.193Z,94471.78
2023-04-29T21:28:45.949Z,94475.47
2023-04-29T21:31:16.146Z,94474.69
2023-04-29T21:33:44.299Z,94476.38
2023-04-29T21:36:10.800Z,94479.47
2023-04-29T21:38:37.199Z,94483.34
2023-04-29T21:41:06.275Z,94489.72
2023-04-29T21:43:33.355Z,94471.81
2023-04-29T21:46:00.455Z,94474.34
2023-04-29T21:48:27.492Z,94477.81
2023-04-29T21:50:53.950Z,94484.38
2023-04-29T21:53:20.356Z,94487.00
2023-04-29T21:55:46.963Z,94479.44
2023-04-29T21:58:13.526Z,94482.81
2023-04-29T22:00:47.657Z,94478.09
2023-04-29T22:03:15.258Z,94477.53
2023-04-29T22:05:42.087Z,94478.59
2023-04-29T22:08:08.639Z,94483.81
2023-04-29T22:10:35.212Z,94484.09
2023-04-29T22:13:01.759Z,94472.69
2023-04-29T22:15:29.502Z,94479.66
2023-04-29T22:17:57.231Z,94483.31
2023-04-29T22:20:23.968Z,94486.22
2023-04-29T22:22:50.530Z,94477.91
2023-04-29T22:25:18.004Z,94476.34
2023-04-29T22:27:44.442Z,94478.66
2023-04-29T22:30:11.386Z,94480.22
2023-04-29T22:32:37.921Z,94473.25
2023-04-29T22:35:04.702Z,94478.19
2023-04-29T22:37:31.320Z,94481.25
2023-04-29T22:39:57.823Z,94480.00
2023-04-29T22:42:24.398Z,94485.03
2023-04-29T22:44:50.997Z,94484.81
2023-04-29T22:47:17.498Z,94486.16
2023-04-29T22:49:43.954Z,94486.44
2023-04-29T22:52:10.491Z,94488.28
2023-04-29T22:54:36.922Z,94487.50
2023-04-29T22:57:03.938Z,94485.97
2023-04-29T22:59:30.448Z,94484.22
2023-04-29T23:01:57.085Z,94483.22
2023-04-29T23:04:24.645Z,94486.13
2023-04-29T23:06:51.440Z,94441.78
2023-04-29T23:09:18.040Z,94482.44
2023-04-29T23:11:44.536Z,94481.19
2023-04-29T23:14:10.982Z,94480.59
2023-04-29T23:16:37.419Z,94481.69
2023-04-29T23:19:04.494Z,94479.16
2023-04-29T23:21:31.157Z,94477.13
2023-04-29T23:23:57.729Z,94475.84
2023-04-29T23:26:24.241Z,94483.09
2023-04-29T23:28:50.724Z,94474.56
2023-04-29T23:31:17.312Z,94476.47
2023-04-29T23:33:44.219Z,94475.19
2023-04-29T23:36:11.778Z,94476.75
2023-04-29T23:38:38.262Z,94481.97
2023-04-29T23:41:04.790Z,94476.47
2023-04-29T23:43:32.078Z,94488.75
2023-04-29T23:45:58.524Z,94480.41
2023-04-29T23:48:25.011Z,94483.03
2023-04-29T23:50:51.443Z,94478.59
2023-04-29T23:53:18.606Z,94471.34
2023-04-29T23:55:45.039Z,94472.91
2023-04-29T23:58:11.494Z,94475.84
